CheckWX is a tool to help pilots better visualize weather data.  It is not intended as a substitute for an official pre-flight weather briefing.

00:25:18 UTC

KJAN METAR
Jackson-Medgar Wiley Evers International Airport
Jackson, Mississippi, USA
Current

31 mins ago

KJAN 052354Z 13006KT 10SM FEW120 BKN250 12/04 A3009 RMK AO2 SLP189 T01170044 10194 20117 53006
Observed
Dec-5 @ 23:54 UTC
Wind
  • 130° at 6 KTS
Visibility
10 SM
Flight Rules
VFR
Cloud Levels
  • Few at 12,000' AGL
  • Broken at 25,000' AGL
Temperature
12°C / 54°F
Dewpoint
C / 39°F
Humidity
58%
Altimeter
30.09" Hg
Pressure
1018.92 hPa
Previous

2 hours ago

KJAN 052254Z 14005KT 10SM FEW120 BKN250 15/04 A3008 RMK AO2 SLP185 T01500044
Observed
Dec-5 @ 22:54 UTC
Wind
  • 140° at 5 KTS
Visibility
10 SM
Flight Rules
VFR
Cloud Levels
  • Few at 12,000' AGL
  • Broken at 25,000' AGL
Temperature
15°C / 59°F
Dewpoint
C / 39°F
Humidity
48%
Altimeter
30.08" Hg
Pressure
1018.62 hPa
Previous

3 hours ago

KJAN 052154Z 13005KT 10SM BKN250 18/04 A3007 RMK AO2 SLP182 T01780044
Observed
Dec-5 @ 21:54 UTC
Wind
  • 130° at 5 KTS
Visibility
10 SM
Flight Rules
VFR
Cloud Levels
  • Broken at 25,000' AGL
Temperature
18°C / 64°F
Dewpoint
C / 39°F
Humidity
40%
Altimeter
30.07" Hg
Pressure
1018.32 hPa